LOG1FM EGNS-EGCC
Flight info
| Callsign | LOG1FM |
|---|---|
| Flight time | 0h 32m |
| Altitude | 13000 |
| Route | TIMIS Q39 DANDI DCT PENIL |
| Aircraft | AT76/M-SDFRGY/LB1 |
Departure
| Time | 2026-04-12 10:35 |
|---|---|
| Airport | Isle of Man Airport (EGNS) |
Arrival
| Time | 2026-04-12 11:07 |
|---|---|
| Airport | Manchester Airport (EGCC) |
| Time | Latitude | Longitude | Altitude | Speed | Heading |
|---|---|---|---|---|---|
| 2026-04-12 10:15 | 54.08591 | -4.63314 | 42 ft | 0 kts | 45° |
| 2026-04-12 10:26 | 54.08586 | -4.63322 | 42 ft | 4 kts | 47° |
| 2026-04-12 10:26 | 54.08571 | -4.63358 | 42 ft | 4 kts | 71° |
| 2026-04-12 10:26 | 54.08568 | -4.63401 | 42 ft | 4 kts | 110° |
| 2026-04-12 10:26 | 54.08574 | -4.63422 | 42 ft | 0 kts | 134° |
| 2026-04-12 10:29 | 54.08559 | -4.63396 | 14 ft | 7 kts | 134° |
| 2026-04-12 10:30 | 54.08512 | -4.63331 | 42 ft | 9 kts | 181° |
| 2026-04-12 10:30 | 54.08484 | -4.63354 | 42 ft | 1 kts | 208° |
| 2026-04-12 10:30 | 54.08472 | -4.63361 | 42 ft | 5 kts | 188° |
| 2026-04-12 10:30 | 54.08417 | -4.63234 | 39 ft | 20 kts | 116° |
| 2026-04-12 10:31 | 54.08415 | -4.62975 | 39 ft | 25 kts | 78° |
| 2026-04-12 10:31 | 54.08456 | -4.62654 | 41 ft | 26 kts | 78° |
| 2026-04-12 10:31 | 54.08494 | -4.62353 | 44 ft | 23 kts | 78° |
| 2026-04-12 10:31 | 54.08531 | -4.62053 | 43 ft | 28 kts | 78° |
| 2026-04-12 10:32 | 54.08568 | -4.61762 | 38 ft | 26 kts | 78° |
| 2026-04-12 10:32 | 54.08604 | -4.61474 | 38 ft | 20 kts | 77° |
| 2026-04-12 10:32 | 54.08630 | -4.61273 | 38 ft | 17 kts | 77° |
| 2026-04-12 10:32 | 54.08660 | -4.61029 | 38 ft | 25 kts | 78° |
| 2026-04-12 10:33 | 54.08632 | -4.60800 | 38 ft | 18 kts | 143° |
| 2026-04-12 10:33 | 54.08540 | -4.60773 | 38 ft | 9 kts | 209° |
| 2026-04-12 10:33 | 54.08527 | -4.60804 | 38 ft | 0 kts | 249° |
| 2026-04-12 10:33 | 54.08525 | -4.60816 | 38 ft | 0 kts | 255° |
| 2026-04-12 10:34 | 54.08525 | -4.60817 | 38 ft | 3 kts | 255° |
| 2026-04-12 10:34 | 54.08469 | -4.61250 | 38 ft | 68 kts | 258° |
| 2026-04-12 10:34 | 54.08335 | -4.62292 | 149 ft | 104 kts | 256° |
| 2026-04-12 10:34 | 54.08178 | -4.63545 | 616 ft | 112 kts | 256° |
| 2026-04-12 10:35 | 54.08017 | -4.64830 | 1263 ft | 108 kts | 255° |
| 2026-04-12 10:35 | 54.07905 | -4.65673 | 1440 ft | 118 kts | 255° |
| 2026-04-12 10:35 | 54.07717 | -4.67751 | 1653 ft | 142 kts | 259° |
| 2026-04-12 10:35 | 54.07600 | -4.68850 | 1915 ft | 142 kts | 250° |
| 2026-04-12 10:36 | 54.06843 | -4.69890 | 2318 ft | 159 kts | 196° |
| 2026-04-12 10:36 | 54.05717 | -4.69311 | 2657 ft | 181 kts | 160° |
| 2026-04-12 10:36 | 54.04626 | -4.68212 | 3056 ft | 184 kts | 159° |
| 2026-04-12 10:36 | 54.03179 | -4.66692 | 3604 ft | 186 kts | 158° |
| 2026-04-12 10:37 | 54.02444 | -4.65884 | 3888 ft | 187 kts | 156° |
| 2026-04-12 10:37 | 54.01356 | -4.64663 | 4287 ft | 188 kts | 156° |
| 2026-04-12 10:37 | 54.00254 | -4.63484 | 4665 ft | 185 kts | 163° |
| 2026-04-12 10:37 | 53.99077 | -4.62653 | 5060 ft | 183 kts | 169° |
| 2026-04-12 10:38 | 53.97884 | -4.61889 | 5458 ft | 184 kts | 169° |
| 2026-04-12 10:38 | 53.96682 | -4.61113 | 5841 ft | 186 kts | 168° |
| 2026-04-12 10:38 | 53.95475 | -4.60293 | 6220 ft | 188 kts | 167° |
| 2026-04-12 10:38 | 53.94411 | -4.58921 | 6567 ft | 202 kts | 135° |
| 2026-04-12 10:39 | 53.93598 | -4.56930 | 6885 ft | 207 kts | 130° |
| 2026-04-12 10:39 | 53.92818 | -4.54875 | 7261 ft | 207 kts | 130° |
| 2026-04-12 10:39 | 53.92050 | -4.52840 | 7636 ft | 208 kts | 130° |
| 2026-04-12 10:39 | 53.91265 | -4.50774 | 8001 ft | 209 kts | 130° |
| 2026-04-12 10:40 | 53.90468 | -4.48723 | 8371 ft | 207 kts | 131° |
| 2026-04-12 10:40 | 53.89663 | -4.46697 | 8747 ft | 208 kts | 132° |
| 2026-04-12 10:40 | 53.88845 | -4.44676 | 9112 ft | 208 kts | 133° |
| 2026-04-12 10:40 | 53.88024 | -4.42656 | 9489 ft | 208 kts | 132° |
| 2026-04-12 10:41 | 53.87213 | -4.40659 | 9809 ft | 209 kts | 132° |
| 2026-04-12 10:41 | 53.86378 | -4.38604 | 10162 ft | 209 kts | 132° |
| 2026-04-12 10:41 | 53.85552 | -4.36572 | 10502 ft | 210 kts | 132° |
| 2026-04-12 10:41 | 53.84722 | -4.34540 | 10836 ft | 210 kts | 133° |
| 2026-04-12 10:42 | 53.83889 | -4.32497 | 11149 ft | 211 kts | 132° |
| 2026-04-12 10:42 | 53.83053 | -4.30452 | 11470 ft | 212 kts | 133° |
| 2026-04-12 10:42 | 53.82214 | -4.28403 | 11782 ft | 212 kts | 133° |
| 2026-04-12 10:42 | 53.81374 | -4.26345 | 12094 ft | 213 kts | 133° |
| 2026-04-12 10:43 | 53.79673 | -4.22193 | 12594 ft | 221 kts | 133° |
| 2026-04-12 10:43 | 53.78767 | -4.20023 | 12669 ft | 232 kts | 133° |
| 2026-04-12 10:43 | 53.77801 | -4.17756 | 12684 ft | 243 kts | 133° |
| 2026-04-12 10:44 | 53.76805 | -4.15371 | 12708 ft | 253 kts | 132° |
| 2026-04-12 10:44 | 53.75783 | -4.12889 | 12714 ft | 261 kts | 131° |
| 2026-04-12 10:44 | 53.74732 | -4.10332 | 12714 ft | 268 kts | 131° |
| 2026-04-12 10:44 | 53.73660 | -4.07726 | 12712 ft | 272 kts | 131° |
| 2026-04-12 10:45 | 53.72571 | -4.05084 | 12714 ft | 276 kts | 131° |
| 2026-04-12 10:45 | 53.71468 | -4.02417 | 12715 ft | 278 kts | 131° |
| 2026-04-12 10:45 | 53.70357 | -3.99730 | 12714 ft | 280 kts | 131° |
| 2026-04-12 10:45 | 53.69237 | -3.97039 | 12713 ft | 281 kts | 131° |
| 2026-04-12 10:46 | 53.68129 | -3.94320 | 12714 ft | 283 kts | 126° |
| 2026-04-12 10:46 | 53.67343 | -3.91245 | 12709 ft | 287 kts | 114° |
| 2026-04-12 10:46 | 53.66688 | -3.88054 | 12718 ft | 289 kts | 114° |
| 2026-04-12 10:46 | 53.66023 | -3.84857 | 12722 ft | 289 kts | 115° |
| 2026-04-12 10:47 | 53.65302 | -3.81692 | 12725 ft | 289 kts | 116° |
| 2026-04-12 10:47 | 53.64539 | -3.78550 | 12728 ft | 290 kts | 117° |
| 2026-04-12 10:47 | 53.63777 | -3.75395 | 12728 ft | 291 kts | 117° |
| 2026-04-12 10:47 | 53.63020 | -3.72231 | 12727 ft | 291 kts | 117° |
| 2026-04-12 10:48 | 53.62256 | -3.69064 | 12726 ft | 292 kts | 117° |
| 2026-04-12 10:48 | 53.61466 | -3.65933 | 12728 ft | 288 kts | 123° |
| 2026-04-12 10:48 | 53.60386 | -3.63121 | 12727 ft | 285 kts | 132° |
| 2026-04-12 10:48 | 53.59185 | -3.60470 | 12727 ft | 285 kts | 133° |
| 2026-04-12 10:49 | 53.57984 | -3.57810 | 12733 ft | 286 kts | 132° |
| 2026-04-12 10:49 | 53.56812 | -3.55108 | 12732 ft | 286 kts | 131° |
| 2026-04-12 10:49 | 53.55664 | -3.52372 | 12735 ft | 286 kts | 130° |
| 2026-04-12 10:49 | 53.54512 | -3.49640 | 12735 ft | 286 kts | 130° |
| 2026-04-12 10:50 | 53.53362 | -3.46916 | 12731 ft | 286 kts | 130° |
| 2026-04-12 10:50 | 53.52211 | -3.44187 | 12731 ft | 286 kts | 130° |
| 2026-04-12 10:50 | 53.51366 | -3.41149 | 12732 ft | 294 kts | 104° |
| 2026-04-12 10:50 | 53.51429 | -3.37711 | 12737 ft | 295 kts | 81° |
| 2026-04-12 10:51 | 53.51629 | -3.34338 | 12738 ft | 295 kts | 90° |
| 2026-04-12 10:51 | 53.51675 | -3.30837 | 12739 ft | 296 kts | 91° |
| 2026-04-12 10:51 | 53.51733 | -3.27370 | 12740 ft | 298 kts | 89° |
| 2026-04-12 10:51 | 53.51855 | -3.23898 | 12738 ft | 298 kts | 88° |
| 2026-04-12 10:52 | 53.52001 | -3.20471 | 12739 ft | 298 kts | 88° |
| 2026-04-12 10:52 | 53.52135 | -3.16990 | 12741 ft | 299 kts | 88° |
| 2026-04-12 10:52 | 53.52265 | -3.13505 | 12741 ft | 299 kts | 88° |
| 2026-04-12 10:52 | 53.52393 | -3.09996 | 12519 ft | 300 kts | 88° |
| 2026-04-12 10:53 | 53.52521 | -3.06496 | 12204 ft | 294 kts | 88° |
| 2026-04-12 10:53 | 53.52644 | -3.03125 | 11809 ft | 292 kts | 88° |
| 2026-04-12 10:53 | 53.52768 | -2.99731 | 11414 ft | 291 kts | 89° |
| 2026-04-12 10:53 | 53.52891 | -2.96342 | 11038 ft | 290 kts | 88° |
| 2026-04-12 10:54 | 53.53008 | -2.92983 | 10793 ft | 287 kts | 88° |
| 2026-04-12 10:54 | 53.53125 | -2.89641 | 10539 ft | 286 kts | 88° |
| 2026-04-12 10:54 | 53.53244 | -2.86314 | 10287 ft | 285 kts | 88° |
| 2026-04-12 10:54 | 53.53358 | -2.82993 | 10037 ft | 284 kts | 88° |
| 2026-04-12 10:55 | 53.53472 | -2.79679 | 9786 ft | 284 kts | 88° |
| 2026-04-12 10:55 | 53.53586 | -2.76376 | 9528 ft | 283 kts | 88° |
| 2026-04-12 10:55 | 53.53696 | -2.73072 | 9258 ft | 282 kts | 88° |
| 2026-04-12 10:55 | 53.53855 | -2.69787 | 8983 ft | 282 kts | 86° |
| 2026-04-12 10:56 | 53.54053 | -2.66509 | 8708 ft | 281 kts | 85° |
| 2026-04-12 10:56 | 53.54261 | -2.63243 | 8442 ft | 281 kts | 85° |
| 2026-04-12 10:56 | 53.54475 | -2.59985 | 8185 ft | 280 kts | 85° |
| 2026-04-12 10:56 | 53.54692 | -2.56725 | 7939 ft | 279 kts | 85° |
| 2026-04-12 10:57 | 53.54918 | -2.53499 | 7841 ft | 277 kts | 85° |
| 2026-04-12 10:57 | 53.55149 | -2.50286 | 7666 ft | 278 kts | 85° |
| 2026-04-12 10:57 | 53.55381 | -2.47036 | 7366 ft | 282 kts | 85° |
| 2026-04-12 10:57 | 53.55616 | -2.43739 | 7054 ft | 285 kts | 85° |
| 2026-04-12 10:58 | 53.55854 | -2.40430 | 6792 ft | 285 kts | 85° |
| 2026-04-12 10:58 | 53.56096 | -2.37130 | 6546 ft | 284 kts | 85° |
| 2026-04-12 10:58 | 53.56332 | -2.33853 | 6291 ft | 281 kts | 85° |
| 2026-04-12 10:58 | 53.56566 | -2.30619 | 6077 ft | 276 kts | 85° |
| 2026-04-12 10:59 | 53.56799 | -2.27475 | 5872 ft | 273 kts | 85° |
| 2026-04-12 10:59 | 53.57033 | -2.24322 | 5664 ft | 270 kts | 85° |
| 2026-04-12 10:59 | 53.57130 | -2.21222 | 5445 ft | 261 kts | 103° |
| 2026-04-12 10:59 | 53.56571 | -2.18396 | 5230 ft | 253 kts | 117° |
| 2026-04-12 11:00 | 53.55891 | -2.15669 | 5074 ft | 252 kts | 118° |
| 2026-04-12 11:00 | 53.55201 | -2.13001 | 5010 ft | 246 kts | 119° |
| 2026-04-12 11:00 | 53.54520 | -2.10399 | 4982 ft | 240 kts | 120° |
| 2026-04-12 11:00 | 53.53851 | -2.07860 | 4961 ft | 235 kts | 120° |
| 2026-04-12 11:01 | 53.53193 | -2.05348 | 4950 ft | 235 kts | 120° |
| 2026-04-12 11:01 | 53.52547 | -2.02823 | 4861 ft | 238 kts | 120° |
| 2026-04-12 11:01 | 53.51691 | -2.00489 | 4525 ft | 232 kts | 147° |
| 2026-04-12 11:01 | 53.50305 | -1.99459 | 4258 ft | 212 kts | 182° |
| 2026-04-12 11:02 | 53.48887 | -1.99565 | 4104 ft | 196 kts | 202° |
| 2026-04-12 11:02 | 53.47854 | -2.00843 | 3950 ft | 183 kts | 233° |
| 2026-04-12 11:02 | 53.47135 | -2.02582 | 3841 ft | 181 kts | 239° |
| 2026-04-12 11:02 | 53.46508 | -2.04431 | 3666 ft | 184 kts | 241° |
| 2026-04-12 11:03 | 53.45883 | -2.06317 | 3424 ft | 185 kts | 237° |
| 2026-04-12 11:03 | 53.45137 | -2.08099 | 3160 ft | 188 kts | 234° |
| 2026-04-12 11:03 | 53.44330 | -2.09814 | 2882 ft | 186 kts | 230° |
| 2026-04-12 11:03 | 53.43494 | -2.11295 | 2633 ft | 164 kts | 225° |
| 2026-04-12 11:04 | 53.42673 | -2.12545 | 2409 ft | 157 kts | 224° |
| 2026-04-12 11:04 | 53.41911 | -2.13776 | 2221 ft | 150 kts | 228° |
| 2026-04-12 11:04 | 53.41219 | -2.15056 | 2003 ft | 146 kts | 232° |
| 2026-04-12 11:04 | 53.40628 | -2.16430 | 1789 ft | 144 kts | 236° |
| 2026-04-12 11:05 | 53.40102 | -2.17831 | 1586 ft | 137 kts | 236° |
| 2026-04-12 11:05 | 53.39550 | -2.19069 | 1387 ft | 130 kts | 231° |
| 2026-04-12 11:05 | 53.38996 | -2.20180 | 1185 ft | 116 kts | 230° |
| 2026-04-12 11:05 | 53.38478 | -2.21149 | 1016 ft | 111 kts | 227° |
| 2026-04-12 11:06 | 53.37974 | -2.22109 | 851 ft | 109 kts | 230° |
| 2026-04-12 11:06 | 53.37500 | -2.23093 | 712 ft | 109 kts | 230° |
| 2026-04-12 11:06 | 53.37021 | -2.24080 | 578 ft | 109 kts | 229° |
| 2026-04-12 11:06 | 53.36540 | -2.25077 | 424 ft | 113 kts | 229° |
| 2026-04-12 11:07 | 53.36043 | -2.26106 | 282 ft | 109 kts | 230° |
| 2026-04-12 11:07 | 53.35666 | -2.26888 | 259 ft | 46 kts | 231° |
| 2026-04-12 11:07 | 53.35468 | -2.27296 | 245 ft | 50 kts | 231° |
| 2026-04-12 11:07 | 53.35299 | -2.27679 | 236 ft | 31 kts | 242° |
| 2026-04-12 11:08 | 53.35251 | -2.27936 | 234 ft | 18 kts | 262° |
| 2026-04-12 11:08 | 53.35234 | -2.28116 | 228 ft | 13 kts | 260° |
| 2026-04-12 11:08 | 53.35231 | -2.28151 | 227 ft | 2 kts | 261° |
| 2026-04-12 11:08 | 53.35234 | -2.28189 | 227 ft | 5 kts | 290° |